createdAt,value
2023-01-17T00:01:46.942Z,89.93
2023-01-17T00:04:06.864Z,90.42
2023-01-17T00:06:28.101Z,90.83
2023-01-17T00:08:55.421Z,90.77
2023-01-17T00:10:58.198Z,90.68
2023-01-17T00:13:02.460Z,90.45
2023-01-17T00:15:04.496Z,90.52
2023-01-17T00:17:06.182Z,90.34
2023-01-17T00:19:26.349Z,90.53
2023-01-17T00:21:46.079Z,90.95
2023-01-17T00:24:06.147Z,90.48
2023-01-17T00:26:18.017Z,91.23
2023-01-17T00:28:19.392Z,90.01
2023-01-17T00:30:20.927Z,91.16
2023-01-17T00:32:22.238Z,90.65
2023-01-17T00:34:23.591Z,90.64
2023-01-17T00:36:24.956Z,90.04
2023-01-17T00:38:31.581Z,90.47
2023-01-17T00:40:38.055Z,90.48
2023-01-17T00:42:39.464Z,90.92
2023-01-17T00:44:59.395Z,90.33
2023-01-17T00:47:19.462Z,90.56
2023-01-17T00:49:39.415Z,90.39
2023-01-17T00:51:59.298Z,91.04
2023-01-17T00:54:19.842Z,91.02
2023-01-17T00:56:39.702Z,90.75
2023-01-17T00:58:59.617Z,89.97
2023-01-17T01:01:24.132Z,89.83
2023-01-17T01:03:44.349Z,90.46
2023-01-17T01:06:04.222Z,89.94
2023-01-17T01:08:39.604Z,90.00
2023-01-17T01:11:00.571Z,90.18
2023-01-17T01:13:20.422Z,89.91
2023-01-17T01:15:40.274Z,90.97
2023-01-17T01:18:00.041Z,90.26
2023-01-17T01:20:19.843Z,89.86
2023-01-17T01:22:40.090Z,89.89
2023-01-17T01:24:59.810Z,90.04
2023-01-17T01:27:19.975Z,89.64
2023-01-17T01:29:39.770Z,90.14
2023-01-17T01:31:59.547Z,90.54
2023-01-17T01:34:00.922Z,90.42
2023-01-17T01:36:02.372Z,90.08
2023-01-17T01:38:04.079Z,90.26
2023-01-17T01:40:06.158Z,89.75
2023-01-17T01:42:15.172Z,91.14
2023-01-17T01:44:43.358Z,90.00
2023-01-17T01:46:44.749Z,90.80
2023-01-17T01:48:57.356Z,90.60
2023-01-17T01:51:00.118Z,90.89
2023-01-17T01:53:03.464Z,90.07
2023-01-17T01:55:10.722Z,90.84
2023-01-17T01:57:17.280Z,90.66
2023-01-17T01:59:21.077Z,90.70
2023-01-17T02:03:49.687Z,90.39
2023-01-17T02:05:51.999Z,90.58
2023-01-17T02:07:59.346Z,90.85
2023-01-17T02:10:02.253Z,90.42
2023-01-17T02:12:04.800Z,90.41
2023-01-17T02:14:06.531Z,90.52
2023-01-17T02:16:17.039Z,90.70
2023-01-17T02:18:31.208Z,90.41
2023-01-17T02:20:58.568Z,90.33
2023-01-17T02:23:05.982Z,90.62
2023-01-17T02:25:32.300Z,90.75
2023-01-17T02:28:09.268Z,91.15
2023-01-17T02:30:33.220Z,90.44
2023-01-17T02:32:46.747Z,90.57
2023-01-17T02:34:54.196Z,90.73
2023-01-17T02:37:04.701Z,90.57
2023-01-17T02:39:11.688Z,89.82
2023-01-17T02:41:30.881Z,89.68
2023-01-17T02:43:33.587Z,89.53
2023-01-17T02:45:35.041Z,90.11
2023-01-17T02:47:36.478Z,90.39
2023-01-17T02:49:37.922Z,89.95
2023-01-17T02:51:58.288Z,90.46
2023-01-17T02:54:37.472Z,90.95
2023-01-17T02:56:48.595Z,91.10
2023-01-17T02:59:14.313Z,90.41
2023-01-17T03:01:43.016Z,90.82
2023-01-17T03:04:03.352Z,90.46
2023-01-17T03:06:14.785Z,91.27
2023-01-17T03:08:17.017Z,91.63
2023-01-17T03:10:19.838Z,90.76
2023-01-17T03:12:21.497Z,91.23
2023-01-17T03:14:22.892Z,91.03
2023-01-17T03:16:27.357Z,90.76
2023-01-17T03:18:28.809Z,90.64
2023-01-17T03:20:30.331Z,90.79
2023-01-17T03:22:31.742Z,90.54
2023-01-17T03:24:33.126Z,90.16
2023-01-17T03:26:34.594Z,90.11
2023-01-17T03:28:36.045Z,90.28
2023-01-17T03:30:37.434Z,91.12
2023-01-17T03:32:38.845Z,91.52
2023-01-17T03:34:40.288Z,91.48
2023-01-17T03:36:41.715Z,91.62
2023-01-17T03:38:43.091Z,91.32
2023-01-17T03:40:44.486Z,91.25
2023-01-17T03:42:45.912Z,92.28
2023-01-17T03:44:47.282Z,91.92
2023-01-17T03:46:48.684Z,91.41
2023-01-17T03:48:50.391Z,92.80
2023-01-17T03:50:51.879Z,92.36
2023-01-17T03:52:53.253Z,92.51
2023-01-17T03:54:54.646Z,92.60
2023-01-17T03:56:56.007Z,92.37
2023-01-17T03:58:58.428Z,92.17
2023-01-17T04:01:00.055Z,92.22
2023-01-17T04:03:01.565Z,92.31
2023-01-17T04:05:03.074Z,92.16
2023-01-17T04:07:04.549Z,92.24
2023-01-17T04:09:05.970Z,92.38
2023-01-17T04:11:07.442Z,92.14
2023-01-17T04:13:08.851Z,92.65
2023-01-17T04:15:10.778Z,93.04
2023-01-17T04:17:13.009Z,92.94
2023-01-17T04:19:14.432Z,92.85
2023-01-17T04:21:15.827Z,92.86
2023-01-17T04:23:17.526Z,92.28
2023-01-17T04:25:19.897Z,92.30
2023-01-17T04:27:21.294Z,92.37
2023-01-17T04:29:22.646Z,92.17
2023-01-17T04:31:29.474Z,91.70
2023-01-17T04:33:31.069Z,92.32
2023-01-17T04:35:33.486Z,92.54
2023-01-17T04:37:35.706Z,92.50
2023-01-17T04:39:37.063Z,92.24
2023-01-17T04:41:38.540Z,92.28
2023-01-17T04:43:39.929Z,91.99
2023-01-17T04:45:41.379Z,92.42
2023-01-17T04:47:46.040Z,93.03
2023-01-17T04:49:47.606Z,93.33
2023-01-17T04:51:49.067Z,92.52
2023-01-17T04:53:50.503Z,92.44
2023-01-17T04:55:51.871Z,92.39
2023-01-17T04:57:53.307Z,91.87
2023-01-17T04:59:54.713Z,91.75
2023-01-17T05:01:56.198Z,91.90
2023-01-17T05:03:57.617Z,92.24
2023-01-17T05:05:59.462Z,92.66
2023-01-17T05:08:00.851Z,92.70
2023-01-17T05:10:02.372Z,92.20
2023-01-17T05:12:03.886Z,92.58
2023-01-17T05:14:05.289Z,92.46
2023-01-17T05:16:09.629Z,92.53
2023-01-17T05:18:16.102Z,92.50
2023-01-17T05:20:17.834Z,92.85
2023-01-17T05:22:19.235Z,92.58
2023-01-17T05:24:20.979Z,92.83
2023-01-17T05:26:22.382Z,92.76
2023-01-17T05:28:23.769Z,92.91
2023-01-17T05:30:25.703Z,92.61
2023-01-17T05:32:27.116Z,92.26
2023-01-17T05:34:28.796Z,92.56
2023-01-17T05:36:30.532Z,92.52
2023-01-17T05:38:31.909Z,92.06
2023-01-17T05:40:33.943Z,92.25
2023-01-17T05:42:35.309Z,92.55
2023-01-17T05:44:36.698Z,92.43
2023-01-17T05:46:38.124Z,92.27
2023-01-17T05:48:39.663Z,91.96
2023-01-17T05:50:41.068Z,92.68
2023-01-17T05:52:48.667Z,92.89
2023-01-17T05:54:50.538Z,93.31
2023-01-17T05:56:51.919Z,92.70
2023-01-17T05:58:53.266Z,92.60
2023-01-17T06:00:55.476Z,92.72
2023-01-17T06:02:58.339Z,92.45
2023-01-17T06:05:01.808Z,92.76
2023-01-17T06:07:04.662Z,92.34
2023-01-17T06:09:06.167Z,92.43
2023-01-17T06:11:07.646Z,92.74
2023-01-17T06:13:12.598Z,92.65
2023-01-17T06:15:16.645Z,93.11
2023-01-17T06:17:18.133Z,92.60
2023-01-17T06:19:19.518Z,92.72
2023-01-17T06:21:20.889Z,92.29
2023-01-17T06:23:23.776Z,92.11
2023-01-17T06:25:25.170Z,91.97
2023-01-17T06:27:27.033Z,92.10
2023-01-17T06:29:28.369Z,91.84
2023-01-17T06:31:29.812Z,91.60
2023-01-17T06:33:31.222Z,92.25
2023-01-17T06:35:33.476Z,92.12
2023-01-17T06:37:34.914Z,92.46
2023-01-17T06:39:38.781Z,92.08
2023-01-17T06:41:40.412Z,91.81
2023-01-17T06:43:41.815Z,92.25
2023-01-17T06:45:43.418Z,92.59
2023-01-17T06:47:45.113Z,92.54
2023-01-17T06:49:46.718Z,92.08
2023-01-17T06:51:48.163Z,92.52
2023-01-17T06:53:49.518Z,92.60
2023-01-17T06:55:50.936Z,92.29
2023-01-17T06:57:54.578Z,92.74
2023-01-17T06:59:55.947Z,92.86
2023-01-17T07:01:57.303Z,92.47
2023-01-17T07:03:58.777Z,92.93
2023-01-17T07:06:03.968Z,92.91
2023-01-17T07:08:05.384Z,92.42
2023-01-17T07:10:07.062Z,92.51
2023-01-17T07:12:08.457Z,93.21
2023-01-17T07:14:13.649Z,92.56
2023-01-17T07:16:15.318Z,92.29
2023-01-17T07:18:20.592Z,92.39
2023-01-17T07:20:22.085Z,92.95
2023-01-17T07:22:23.472Z,92.90
2023-01-17T07:24:24.821Z,93.11
2023-01-17T07:26:26.219Z,93.07
2023-01-17T07:28:28.488Z,92.82
2023-01-17T07:30:30.411Z,93.00
2023-01-17T07:32:31.805Z,93.15
2023-01-17T07:34:33.199Z,93.16
2023-01-17T07:36:34.735Z,93.34
2023-01-17T07:38:36.484Z,93.08
2023-01-17T07:40:42.067Z,93.11
2023-01-17T07:42:44.805Z,93.01
2023-01-17T07:44:46.322Z,92.88
2023-01-17T07:46:47.746Z,93.03
2023-01-17T07:48:49.136Z,92.51
2023-01-17T07:50:56.724Z,93.15
2023-01-17T07:52:58.113Z,93.18
2023-01-17T07:54:59.519Z,92.99
2023-01-17T07:57:01.285Z,92.94
2023-01-17T07:59:02.912Z,92.74
2023-01-17T08:01:06.458Z,92.84
2023-01-17T08:03:14.619Z,91.92
2023-01-17T08:05:16.227Z,92.57
2023-01-17T08:07:17.708Z,92.61
2023-01-17T08:09:19.118Z,92.79
2023-01-17T08:11:21.089Z,92.19
2023-01-17T08:13:22.549Z,91.86
2023-01-17T08:15:26.470Z,92.02
2023-01-17T08:17:28.324Z,91.83
2023-01-17T08:19:29.707Z,91.95
2023-01-17T08:21:31.255Z,91.24
2023-01-17T08:23:32.650Z,91.09
2023-01-17T08:25:35.233Z,91.08
2023-01-17T08:27:36.799Z,91.33
2023-01-17T08:29:41.963Z,90.80
2023-01-17T08:31:43.385Z,91.17
2023-01-17T08:33:44.860Z,90.28
2023-01-17T08:35:55.536Z,90.73
2023-01-17T08:37:57.577Z,90.04
2023-01-17T08:39:59.212Z,90.72
2023-01-17T08:42:00.631Z,91.24
2023-01-17T08:44:02.599Z,90.27
2023-01-17T08:46:06.382Z,90.39
2023-01-17T08:48:07.863Z,90.65
2023-01-17T08:50:09.817Z,90.14
2023-01-17T08:52:14.314Z,89.88
2023-01-17T08:54:15.897Z,88.95
2023-01-17T08:56:17.359Z,88.73
2023-01-17T08:58:18.884Z,88.51
2023-01-17T09:00:20.670Z,87.82
2023-01-17T09:02:23.924Z,88.07
2023-01-17T09:04:25.313Z,88.33
2023-01-17T09:06:26.826Z,88.74
2023-01-17T09:08:28.240Z,88.09
2023-01-17T09:10:29.653Z,88.77
2023-01-17T09:12:34.647Z,88.79
2023-01-17T09:14:37.118Z,89.48
2023-01-17T09:16:38.580Z,89.01
2023-01-17T09:18:40.003Z,89.09
2023-01-17T09:20:41.383Z,88.80
2023-01-17T09:22:42.795Z,89.58
2023-01-17T09:24:44.223Z,89.59
2023-01-17T09:26:45.649Z,89.33
2023-01-17T09:28:47.664Z,88.61
2023-01-17T09:30:49.442Z,88.90
2023-01-17T09:32:54.779Z,88.19
2023-01-17T09:35:00.686Z,88.13
2023-01-17T09:37:02.243Z,88.58
2023-01-17T09:39:04.179Z,88.45
2023-01-17T09:41:27.735Z,88.48
2023-01-17T09:43:41.312Z,88.89
2023-01-17T09:45:42.741Z,88.36
2023-01-17T09:47:52.013Z,88.60
2023-01-17T09:49:59.463Z,87.45
2023-01-17T09:52:02.037Z,87.47
2023-01-17T09:54:03.718Z,88.30
2023-01-17T09:56:12.630Z,87.31
2023-01-17T09:58:52.305Z,87.75
2023-01-17T10:01:28.047Z,87.02
2023-01-17T10:03:53.355Z,87.24
2023-01-17T10:06:45.376Z,87.63
2023-01-17T10:09:08.179Z,87.18
2023-01-17T10:11:24.424Z,88.07
2023-01-17T10:13:38.564Z,87.65
2023-01-17T10:16:00.113Z,87.18
2023-01-17T10:18:29.982Z,84.53
2023-01-17T10:20:54.068Z,84.57
2023-01-17T10:23:12.500Z,85.02
2023-01-17T10:25:46.989Z,85.20
2023-01-17T10:27:57.723Z,85.23
2023-01-17T10:30:01.008Z,85.90
2023-01-17T10:32:03.246Z,85.96
2023-01-17T10:34:17.006Z,86.18
2023-01-17T10:36:31.944Z,85.91
2023-01-17T10:38:38.576Z,85.66
2023-01-17T10:40:44.666Z,86.10
2023-01-17T10:42:56.139Z,86.43
2023-01-17T10:45:30.496Z,86.26
2023-01-17T10:47:36.718Z,85.34
2023-01-17T10:49:52.650Z,84.95
2023-01-17T10:52:04.916Z,85.51
2023-01-17T10:54:19.741Z,86.19
2023-01-17T10:56:26.221Z,86.50
2023-01-17T10:58:27.618Z,86.87
2023-01-17T11:00:39.822Z,85.58
2023-01-17T11:02:49.600Z,86.58
2023-01-17T11:04:54.518Z,87.76
2023-01-17T11:07:12.366Z,83.65
2023-01-17T11:09:14.621Z,85.35
2023-01-17T11:11:17.089Z,83.89
2023-01-17T11:13:23.740Z,83.57
2023-01-17T11:15:25.929Z,83.67
2023-01-17T11:17:28.596Z,82.85
2023-01-17T11:19:35.362Z,83.04
2023-01-17T11:21:39.365Z,82.63
2023-01-17T11:23:44.336Z,82.74
2023-01-17T11:25:50.884Z,84.57
2023-01-17T11:28:30.217Z,83.62
2023-01-17T11:30:31.719Z,82.58
2023-01-17T11:32:34.517Z,81.87
2023-01-17T11:34:36.478Z,82.63
2023-01-17T11:36:38.044Z,82.56
2023-01-17T11:38:39.531Z,83.09
2023-01-17T11:40:50.291Z,82.19
2023-01-17T11:43:18.621Z,82.55
2023-01-17T11:45:28.742Z,83.04
2023-01-17T11:47:30.283Z,82.00
2023-01-17T11:49:32.367Z,80.37
2023-01-17T11:51:41.312Z,80.83
2023-01-17T11:53:48.037Z,80.63
2023-01-17T11:55:57.137Z,81.18
2023-01-17T11:57:58.848Z,81.31
2023-01-17T12:00:25.440Z,80.21
2023-01-17T12:02:36.113Z,80.60
2023-01-17T12:04:52.621Z,81.06
2023-01-17T12:06:58.085Z,79.11
2023-01-17T12:09:26.209Z,81.27
2023-01-17T12:12:12.896Z,78.89
2023-01-17T12:14:40.033Z,79.53
2023-01-17T12:16:53.705Z,77.78
2023-01-17T12:19:10.181Z,80.29
2023-01-17T12:21:21.817Z,79.13
2023-01-17T12:23:52.610Z,78.70
2023-01-17T12:26:23.924Z,80.24
2023-01-17T12:28:44.549Z,80.86
2023-01-17T12:31:11.389Z,79.03
2023-01-17T12:33:24.112Z,78.95
2023-01-17T12:35:38.544Z,78.07
2023-01-17T12:37:43.519Z,78.52
2023-01-17T12:39:54.256Z,79.56
2023-01-17T12:42:19.871Z,78.60
2023-01-17T12:44:39.014Z,79.91
2023-01-17T12:46:49.431Z,81.04
2023-01-17T12:48:55.957Z,80.73
2023-01-17T12:51:19.195Z,80.32
2023-01-17T12:53:35.200Z,81.45
2023-01-17T12:55:47.295Z,79.94
2023-01-17T12:57:57.107Z,78.06
2023-01-17T13:00:04.655Z,77.60
2023-01-17T13:02:22.588Z,80.78
2023-01-17T13:04:53.138Z,78.98
2023-01-17T13:06:59.571Z,78.54
2023-01-17T13:09:03.761Z,78.25
2023-01-17T13:11:10.828Z,76.77
2023-01-17T13:13:22.381Z,77.69
2023-01-17T13:15:28.477Z,77.42
2023-01-17T13:17:44.990Z,76.57
2023-01-17T13:20:01.658Z,76.27
2023-01-17T13:22:06.768Z,75.96
2023-01-17T13:24:26.906Z,77.27
2023-01-17T13:26:33.986Z,78.62
2023-01-17T13:28:38.270Z,78.48
2023-01-17T13:30:51.821Z,76.86
2023-01-17T13:33:09.412Z,78.94
2023-01-17T13:35:47.948Z,79.01
2023-01-17T13:37:58.248Z,77.67
2023-01-17T13:40:25.860Z,77.51
2023-01-17T13:42:30.692Z,78.47
2023-01-17T13:44:33.366Z,80.91
2023-01-17T13:46:58.683Z,78.07
2023-01-17T13:49:23.246Z,78.63
2023-01-17T13:52:04.461Z,79.30
2023-01-17T13:54:07.436Z,79.18
2023-01-17T13:56:27.724Z,77.22
2023-01-17T13:58:50.061Z,79.71
2023-01-17T14:00:51.719Z,81.30
2023-01-17T14:02:55.440Z,79.72
2023-01-17T14:05:09.350Z,80.72
2023-01-17T14:07:26.241Z,82.06
2023-01-17T14:09:42.372Z,82.21
2023-01-17T14:11:51.632Z,83.04
2023-01-17T14:13:53.074Z,82.81
2023-01-17T14:15:54.612Z,83.51
2023-01-17T14:17:59.411Z,82.97
2023-01-17T14:20:09.672Z,82.60
2023-01-17T14:22:19.947Z,81.57
2023-01-17T14:24:21.705Z,83.37
2023-01-17T14:26:58.885Z,84.56
2023-01-17T14:29:38.938Z,84.17
2023-01-17T14:31:40.617Z,83.95
2023-01-17T14:33:42.210Z,84.28
2023-01-17T14:35:52.966Z,84.55
2023-01-17T14:37:54.652Z,84.36
2023-01-17T14:39:56.185Z,83.88
2023-01-17T14:41:58.319Z,83.58
2023-01-17T14:44:00.976Z,83.25
2023-01-17T14:46:22.951Z,83.44
2023-01-17T14:48:24.848Z,83.44
2023-01-17T14:50:29.840Z,82.34
2023-01-17T14:52:31.212Z,83.58
2023-01-17T14:54:33.294Z,83.27
2023-01-17T14:56:34.848Z,81.67
2023-01-17T14:58:42.275Z,82.93
2023-01-17T15:00:43.981Z,82.95
2023-01-17T15:02:47.913Z,83.14
2023-01-17T15:04:54.517Z,84.40
2023-01-17T15:06:58.464Z,84.03
2023-01-17T15:09:01.031Z,83.64
2023-01-17T15:11:07.494Z,84.03
2023-01-17T15:13:10.288Z,84.26
2023-01-17T15:15:44.393Z,84.70
2023-01-17T15:17:45.779Z,84.78
2023-01-17T15:19:53.900Z,84.86
2023-01-17T15:21:55.446Z,85.04
2023-01-17T15:23:59.744Z,85.38
2023-01-17T15:26:03.259Z,86.20
2023-01-17T15:28:06.466Z,85.78
2023-01-17T15:30:08.500Z,86.42
2023-01-17T15:32:31.205Z,86.23
2023-01-17T15:34:35.758Z,86.09
2023-01-17T15:36:38.503Z,86.71
2023-01-17T15:38:50.220Z,86.60
2023-01-17T15:40:51.925Z,87.41
2023-01-17T15:42:59.402Z,86.99
2023-01-17T15:45:04.644Z,87.05
2023-01-17T15:47:24.217Z,87.80
2023-01-17T15:49:28.952Z,87.30
2023-01-17T15:51:37.511Z,87.62
2023-01-17T15:53:42.227Z,87.76
2023-01-17T15:55:45.364Z,87.81
2023-01-17T15:57:47.869Z,87.75
2023-01-17T16:00:00.387Z,87.62
2023-01-17T16:02:01.925Z,88.11
2023-01-17T16:04:03.387Z,87.80
2023-01-17T16:06:28.935Z,87.90
2023-01-17T16:08:38.672Z,88.30
2023-01-17T16:10:40.880Z,88.37
2023-01-17T16:12:42.815Z,88.66
2023-01-17T16:14:59.571Z,88.30
2023-01-17T16:17:06.178Z,88.49
2023-01-17T16:19:08.897Z,88.33
2023-01-17T16:21:18.865Z,88.71
2023-01-17T16:23:20.450Z,88.75
2023-01-17T16:25:23.595Z,88.58
2023-01-17T16:27:25.014Z,88.77
2023-01-17T16:29:26.541Z,89.10
2023-01-17T16:31:27.976Z,89.21
2023-01-17T16:33:29.491Z,89.05
2023-01-17T16:35:33.208Z,88.77
2023-01-17T16:37:34.611Z,89.68
2023-01-17T16:39:36.006Z,89.40
2023-01-17T16:41:38.141Z,89.14
2023-01-17T16:43:39.700Z,90.14
2023-01-17T16:45:43.803Z,89.26
2023-01-17T16:47:46.913Z,89.60
2023-01-17T16:49:48.314Z,89.42
2023-01-17T16:51:49.886Z,89.47
2023-01-17T16:53:51.282Z,90.20
2023-01-17T16:55:58.723Z,90.22
2023-01-17T16:58:00.149Z,90.14
2023-01-17T17:00:01.618Z,90.23
2023-01-17T17:02:05.144Z,90.22
2023-01-17T17:04:06.564Z,89.87
2023-01-17T17:06:08.090Z,89.97
2023-01-17T17:08:09.528Z,89.75
2023-01-17T17:10:14.004Z,90.32
2023-01-17T17:12:15.655Z,90.19
2023-01-17T17:14:17.276Z,89.60
2023-01-17T17:16:20.373Z,89.70
2023-01-17T17:18:21.759Z,90.17
2023-01-17T17:20:25.144Z,90.42
2023-01-17T17:22:26.675Z,91.01
2023-01-17T17:24:28.740Z,90.82
2023-01-17T17:26:34.417Z,90.76
2023-01-17T17:28:35.938Z,89.78
2023-01-17T17:30:37.436Z,90.29
2023-01-17T17:32:38.947Z,90.30
2023-01-17T17:34:40.328Z,90.01
2023-01-17T17:36:42.034Z,90.50
2023-01-17T17:38:52.989Z,90.16
2023-01-17T17:40:54.408Z,90.69
2023-01-17T17:42:55.869Z,90.65
2023-01-17T17:44:57.306Z,90.93
2023-01-17T17:46:58.691Z,90.87
2023-01-17T17:49:01.123Z,89.66
2023-01-17T17:51:03.918Z,90.50
2023-01-17T17:53:05.320Z,90.98
2023-01-17T17:55:07.145Z,91.23
2023-01-17T17:57:09.264Z,91.01
2023-01-17T17:59:14.668Z,90.58
2023-01-17T18:01:16.520Z,90.88
2023-01-17T18:03:17.991Z,90.95
2023-01-17T18:05:19.423Z,90.88
2023-01-17T18:07:20.844Z,91.24
2023-01-17T18:09:22.328Z,91.62
2023-01-17T18:11:26.566Z,91.22
2023-01-17T18:13:28.164Z,91.34
2023-01-17T18:15:29.604Z,90.20
2023-01-17T18:17:31.003Z,90.47
2023-01-17T18:19:32.452Z,90.83
2023-01-17T18:21:37.453Z,90.77
2023-01-17T18:23:40.767Z,91.03
2023-01-17T18:25:44.004Z,90.42
2023-01-17T18:27:45.451Z,89.80
2023-01-17T18:29:46.838Z,90.72
2023-01-17T18:31:52.345Z,89.98
2023-01-17T18:33:55.724Z,90.35
2023-01-17T18:36:00.005Z,90.58
2023-01-17T18:38:01.557Z,90.91
2023-01-17T18:40:03.074Z,90.71
2023-01-17T18:42:04.730Z,91.82
2023-01-17T18:44:07.141Z,91.71
2023-01-17T18:46:09.877Z,91.34
2023-01-17T18:48:12.551Z,91.79
2023-01-17T18:50:14.013Z,91.99
2023-01-17T18:52:15.554Z,92.16
2023-01-17T18:54:18.180Z,91.70
2023-01-17T18:56:21.936Z,92.83
2023-01-17T18:58:24.436Z,92.34
2023-01-17T19:00:25.937Z,91.94
2023-01-17T19:02:27.319Z,92.31
2023-01-17T19:04:29.636Z,91.53
2023-01-17T19:06:36.701Z,91.51
2023-01-17T19:08:38.573Z,91.08
2023-01-17T19:10:39.978Z,90.86
2023-01-17T19:12:41.388Z,91.55
2023-01-17T19:14:42.843Z,91.65
2023-01-17T19:16:44.891Z,91.36
2023-01-17T19:18:46.978Z,90.85
2023-01-17T19:20:48.389Z,90.39
2023-01-17T19:22:49.794Z,90.70
2023-01-17T19:24:53.030Z,90.98
2023-01-17T19:26:54.535Z,91.35
2023-01-17T19:28:58.825Z,91.69
2023-01-17T19:31:09.172Z,91.15
2023-01-17T19:33:10.602Z,91.63
2023-01-17T19:35:13.853Z,92.64
2023-01-17T19:37:15.332Z,92.00
2023-01-17T19:39:16.785Z,92.27
2023-01-17T19:41:24.297Z,91.96
2023-01-17T19:43:25.723Z,91.22
2023-01-17T19:45:27.172Z,90.95
2023-01-17T19:47:28.630Z,91.37
2023-01-17T19:49:32.011Z,91.05
2023-01-17T19:51:33.691Z,91.31
2023-01-17T19:53:35.975Z,91.34
2023-01-17T19:55:39.466Z,92.06
2023-01-17T19:57:41.396Z,91.95
2023-01-17T19:59:42.803Z,91.13
2023-01-17T20:01:44.288Z,91.25
2023-01-17T20:03:46.621Z,91.11
2023-01-17T20:05:56.431Z,90.89
2023-01-17T20:07:58.392Z,91.56
2023-01-17T20:10:00.388Z,92.75
2023-01-17T20:12:01.815Z,93.11
2023-01-17T20:14:05.498Z,93.19
2023-01-17T20:16:09.598Z,92.83
2023-01-17T20:18:12.608Z,92.61
2023-01-17T20:20:14.084Z,92.25
2023-01-17T20:22:15.514Z,92.67
2023-01-17T20:24:17.033Z,92.09
2023-01-17T20:26:31.037Z,91.77
2023-01-17T20:28:34.636Z,90.93
2023-01-17T20:30:36.154Z,91.70
2023-01-17T20:32:37.694Z,91.43
2023-01-17T20:34:39.111Z,91.57
2023-01-17T20:36:41.963Z,92.63
2023-01-17T20:38:44.239Z,92.98
2023-01-17T20:40:54.153Z,92.80
2023-01-17T20:42:55.563Z,92.57
2023-01-17T20:44:57.087Z,91.91
2023-01-17T20:46:58.541Z,91.36
2023-01-17T20:49:01.179Z,91.17
2023-01-17T20:51:05.679Z,91.00
2023-01-17T20:53:07.067Z,90.93
2023-01-17T20:55:09.182Z,90.91
2023-01-17T20:57:10.696Z,90.88
2023-01-17T20:59:14.921Z,91.39
2023-01-17T21:01:20.743Z,91.80
2023-01-17T21:03:23.791Z,92.46
2023-01-17T21:05:25.191Z,92.94
2023-01-17T21:07:26.620Z,93.48
2023-01-17T21:09:28.056Z,92.53
2023-01-17T21:11:30.476Z,93.16
2023-01-17T21:13:32.369Z,93.95
2023-01-17T21:15:33.750Z,93.48
2023-01-17T21:17:39.665Z,93.87
2023-01-17T21:19:41.132Z,92.83
2023-01-17T21:21:42.900Z,92.91
2023-01-17T21:23:45.290Z,93.22
2023-01-17T21:25:54.799Z,93.71
2023-01-17T21:27:57.438Z,93.24
2023-01-17T21:29:59.848Z,93.98
2023-01-17T21:32:02.087Z,93.18
2023-01-17T21:34:05.791Z,92.85
2023-01-17T21:36:10.641Z,92.66
2023-01-17T21:38:13.756Z,91.76
2023-01-17T21:40:16.999Z,92.03
2023-01-17T21:42:18.412Z,91.65
2023-01-17T21:44:22.345Z,91.73
2023-01-17T21:46:24.319Z,91.97
2023-01-17T21:48:25.733Z,91.29
2023-01-17T21:50:33.392Z,92.52
2023-01-17T21:52:35.767Z,92.28
2023-01-17T21:54:56.004Z,92.44
2023-01-17T21:57:15.863Z,92.80
2023-01-17T21:59:17.371Z,93.10
2023-01-17T22:01:23.584Z,93.92
2023-01-17T22:03:25.007Z,93.84
2023-01-17T22:05:26.435Z,93.12
2023-01-17T22:07:28.927Z,93.51
2023-01-17T22:09:30.312Z,93.01
2023-01-17T22:11:31.909Z,93.29
2023-01-17T22:13:34.343Z,92.39
2023-01-17T22:15:36.438Z,92.49
2023-01-17T22:17:39.740Z,92.27
2023-01-17T22:19:41.204Z,92.34
2023-01-17T22:21:43.793Z,91.59
2023-01-17T22:23:50.543Z,91.81
2023-01-17T22:25:51.957Z,91.51
2023-01-17T22:27:53.435Z,91.23
2023-01-17T22:29:54.872Z,91.29
2023-01-17T22:31:56.291Z,91.48
2023-01-17T22:34:00.879Z,91.07
2023-01-17T22:36:02.288Z,91.39
2023-01-17T22:38:03.683Z,91.59
2023-01-17T22:40:05.888Z,91.43
2023-01-17T22:42:08.267Z,91.19
2023-01-17T22:44:09.713Z,91.08
2023-01-17T22:46:13.666Z,91.33
2023-01-17T22:48:15.102Z,91.47
2023-01-17T22:50:17.067Z,91.33
2023-01-17T22:52:18.463Z,91.76
2023-01-17T22:54:19.890Z,91.16
2023-01-17T22:56:23.972Z,91.44
2023-01-17T22:58:27.267Z,91.34
2023-01-17T23:00:28.713Z,91.39
2023-01-17T23:02:30.092Z,91.73
2023-01-17T23:04:31.547Z,91.07
2023-01-17T23:06:36.026Z,91.31
2023-01-17T23:08:38.379Z,90.92
2023-01-17T23:11:20.877Z,91.00
2023-01-17T23:13:22.244Z,91.20
2023-01-17T23:15:42.490Z,91.96
2023-01-17T23:18:02.437Z,90.95
2023-01-17T23:20:04.582Z,91.18
2023-01-17T23:22:21.090Z,91.52
2023-01-17T23:24:22.528Z,91.69
2023-01-17T23:26:23.970Z,92.02
2023-01-17T23:28:25.390Z,92.33
2023-01-17T23:30:35.967Z,92.57
2023-01-17T23:32:48.000Z,92.79
2023-01-17T23:34:49.673Z,92.90
2023-01-17T23:36:51.115Z,92.13
2023-01-17T23:38:52.483Z,91.38
2023-01-17T23:41:18.207Z,91.29
2023-01-17T23:43:25.149Z,91.52
2023-01-17T23:45:27.082Z,91.94
2023-01-17T23:47:28.509Z,92.62
2023-01-17T23:49:31.313Z,92.98
2023-01-17T23:51:32.723Z,93.82
2023-01-17T23:53:35.177Z,93.59
2023-01-17T23:55:39.044Z,93.77
2023-01-17T23:57:40.532Z,93.71
2023-01-17T23:59:41.958Z,93.67
